deformed-offering

Nearby METAR Reports

 

KSJC - San Jose, California, USA
Distance from station: NE 9mi, 14km
Updated: Thu, 01-Dec-2022 5:53am PST
Overcast
Overcast
 Wind from SSE
Wind: SSE 18 mph , 30 km/h, Gust: 28 mph , 44 km/h
Temperature: 52°F , 11°C
Dew Point: 39°F , 4°C
Humidity: 62%
Barometer: 29.85 inHg , 1010.8 hPa
Clouds: Overcast
Visibility: 10 miles , 16 km
Cloud details: Partly Cloudy 3000 ft
Mostly Cloudy 4600 ft
Overcast 11000 ft
2022/12/01 13:53 KSJC 011353Z 15016G24KT 10SM SCT030 BKN046 OVC110 11/04 A2985 RMK AO2 SLP108 T01060044
KPAO - Palo Alto, California, USA
Distance from station: NNW 14mi, 23km
Updated: Wed, 30-Nov-2022 8:47pm PST
NOT Current
Clear
Clear
 Wind from calm
Wind: Calm
Temperature: 46°F , 8°C
Dew Point: 37°F , 3°C
Humidity: 71%
Barometer: 29.96 inHg , 1014.6 hPa
Clouds: Clear
Visibility: 10 miles , 16 km
2022/12/01 04:47 KPAO 010447Z 00000KT 10SM SKC 08/03 A2996 RMK LAST
 
KSQL - San Carlos Airpo, California, USA
Distance from station: NW 21mi, 34km
Updated: Thu, 01-Dec-2022 6:15am PST

 Wind from S
Wind: S 10 mph , 17 km/h, Gust: 22 mph , 35 km/h
Temperature: 50°F , 10°C
Wind Chill: 46°F , 8°C
Dew Point: 46°F , 8°C
Humidity: 88%
Barometer: 29.83 inHg , 1010.2 hPa
Visibility: 9 miles , 14 km
2022/12/01 14:15 KSQL 011415Z AUTO 17009G19KT 9SM 10/08 A2983 RMK AO2
KWVI - Watsonville, California, USA
Distance from station: SSE 27mi, 44km
Updated: Thu, 01-Dec-2022 6:13am PST
Overcast
Overcast
 Wind from NNE
Wind: NNE 3 mph , 6 km/h
Temperature: 45°F , 7°C
Dew Point: 39°F , 4°C
Humidity: 81%
Barometer: 29.89 inHg , 1012.2 hPa
Clouds: Overcast
Visibility: 10 miles , 16 km
Cloud details: Overcast 2900 ft
2022/12/01 14:13 KWVI 011413Z AUTO 02003KT 10SM OVC029 07/04 A2989 RMK AO2 T00670044
 
KHWD - Hayward, California, USA
Distance from station: N 28mi, 44km
Updated: Thu, 01-Dec-2022 5:54am PST
Light rain, Overcast
Light rain, Overcast
 Wind from SSE
Wind: SSE 22 mph , 35 km/h, Gust: 32 mph , 52 km/h
Temperature: 52°F , 11°C
Dew Point: 43°F , 6°C
Humidity: 72%
Barometer: 29.81 inHg , 1009.5 hPa
Summary: Light Rain
Clouds: Overcast
Cloud details: Mostly Cloudy 2700 ft
Mostly Cloudy 4200 ft
Overcast 9000 ft
2022/12/01 13:54 KHWD 011354Z AUTO 15019G28KT -RA BKN027 BKN042 OVC090 11/06 A2981 RMK AO2 PK WND 13028/1349 SLP104 P0000 T01110056 $
KSFO - San Francisco, California, USA
Distance from station: NW 30mi, 49km
Updated: Thu, 01-Dec-2022 5:56am PST
Light rain, Overcast
Light rain, Overcast
 Wind from SSE
Wind: SSE 15 mph , 24 km/h
Temperature: 52°F , 11°C
Dew Point: 46°F , 8°C
Humidity: 82%
Barometer: 29.80 inHg , 1009.1 hPa
Summary: Light Rain
Clouds: Overcast
Visibility: 10 miles , 16 km
Cloud details: Few Clouds 1800 ft
Mostly Cloudy 2100 ft
Overcast 2800 ft
2022/12/01 13:56 KSFO 011356Z 15013KT 10SM -RA FEW018 BKN021 OVC028 11/08 A2980 RMK AO2 RAB54 SLP092 P0000 T01110078
 
KHAF - Half Moon Bay, California, USA
Distance from station: WNW 31mi, 50km
Updated: Thu, 01-Dec-2022 6:15am PST
Mist, Overcast
Mist, Overcast
 Wind from S
Wind: S 25 mph , 41 km/h, Gust: 35 mph , 56 km/h
Temperature: 50°F , 10°C
Wind Chill: 43°F , 6°C
Dew Point: 50°F , 10°C
Humidity: 100%
Barometer: 29.81 inHg , 1009.5 hPa
Summary: Mist
Clouds: Overcast
Visibility: 2 miles , 3 km
Cloud details: Mostly Cloudy 1200 ft
Overcast 1700 ft
2022/12/01 14:15 KHAF 011415Z AUTO 17022G30KT 2SM BR BKN012 OVC017 10/10 A2981 RMK AO2
KLVK - Livermore, California, USA
Distance from station: NNE 31mi, 51km
Updated: Thu, 01-Dec-2022 5:53am PST
Overcast
Overcast
 Wind from SSW
Wind: SSW 9 mph , 15 km/h
Temperature: 52°F , 11°C
Dew Point: 43°F , 6°C
Humidity: 72%
Barometer: 29.81 inHg , 1009.5 hPa
Clouds: Overcast
Visibility: 10 miles , 16 km
Cloud details: Partly Cloudy 3000 ft
Overcast 3700 ft
2022/12/01 13:53 KLVK 011353Z AUTO 20008KT 10SM SCT030 OVC037 11/06 A2981 RMK AO2 SLP094 T01110056
 
KOAK - Oakland, California, USA
Distance from station: NNW 33mi, 53km
Updated: Thu, 01-Dec-2022 5:53am PST
Light rain, Overcast
Light rain, Overcast
 Wind from SSE
Wind: SSE 17 mph , 28 km/h, Gust: 37 mph , 59 km/h
Temperature: 52°F , 11°C
Dew Point: 45°F , 7°C
Humidity: 77%
Barometer: 29.80 inHg , 1009.1 hPa
Summary: Light Rain
Clouds: Overcast
Visibility: 10 miles , 16 km
Cloud details: Mostly Cloudy 2800 ft
Mostly Cloudy 3500 ft
Overcast 8500 ft
2022/12/01 13:53 KOAK 011353Z 15015G32KT 10SM -RA BKN028 BKN035 OVC085 11/07 A2980 RMK AO2 PK WND 15037/1340 RAB48 SLP091 P0000 T01110072
KCVH - Hollister Muni, California, USA
Distance from station: SE 42mi, 68km
Updated: Thu, 01-Dec-2022 6:15am PST
Few Clouds
Few Clouds
 Wind from calm
Wind: Calm
Temperature: 43°F , 6°C
Dew Point: 36°F , 2°C
Humidity: 76%
Barometer: 29.91 inHg , 1012.9 hPa
Clouds: Few Clouds
Visibility: 10 miles , 16 km
Cloud details: Few Clouds 6000 ft
Few Clouds 7000 ft
2022/12/01 14:15 KCVH 011415Z AUTO 00000KT 10SM FEW060 FEW070 06/02 A2991 RMK A01
 
KSNS - Salinas, California, USA
Distance from station: SSE 48mi, 77km
Updated: Thu, 01-Dec-2022 5:53am PST
Few Clouds
Few Clouds
 Wind from SE
Wind: SE 17 mph , 28 km/h
Temperature: 46°F , 8°C
Wind Chill: 39°F , 4°C
Dew Point: 39°F , 4°C
Humidity: 76%
Barometer: 29.88 inHg , 1011.9 hPa
Clouds: Few Clouds
Visibility: 10 miles , 16 km
Cloud details: Few Clouds 6000 ft
2022/12/01 13:53 KSNS 011353Z AUTO 13015KT 10SM FEW060 08/04 A2988 RMK AO2 SLP128 T00780039
KMRY - Monterey, California, USA
Distance from station: SSE 49mi, 78km
Updated: Thu, 01-Dec-2022 5:54am PST
Mostly Cloudy
Mostly Cloudy
 Wind from SE
Wind: SE 6 mph , 9 km/h
Temperature: 50°F , 10°C
Wind Chill: 48°F , 9°C
Dew Point: 39°F , 4°C
Humidity: 67%
Barometer: 29.88 inHg , 1011.9 hPa
Clouds: Mostly Cloudy
Visibility: 10 miles , 16 km
Cloud details: Mostly Cloudy 4400 ft
2022/12/01 13:54 KMRY 011354Z 14005KT 10SM BKN044 10/04 A2988 RMK AO2 SLP132 T01000044
 
KCCR - Concord, California, USA
Distance from station: N 50mi, 81km
Updated: Thu, 01-Dec-2022 5:53am PST
Light rain, Overcast
Light rain, Overcast
 Wind from S
Wind: S 20 mph , 31 km/h, Gust: 29 mph , 46 km/h
Temperature: 54°F , 12°C
Dew Point: 43°F , 6°C
Humidity: 67%
Barometer: 29.78 inHg , 1008.5 hPa
Summary: Light Rain
Clouds: Overcast
Visibility: 10 miles , 16 km
Cloud details: Overcast 2600 ft
2022/12/01 13:53 KCCR 011353Z AUTO 18017G25KT 10SM -RA OVC026 12/06 A2978 RMK AO2 RAB51 SLP070 P0000 T01170061
deformed-offering